Time;durP1;ratioP1;P1;durP2;ratioP2;P2;SDS_P1;SDS_P2;PMS_P1;PMS_P2;Temp;Humidity;BMP_temperature;BMP_pressure;BME280_temperature;BME280_humidity;BME280_pressure;Samples;Min_cycle;Max_cycle;Signal;HPM_P1;HPM_P2
2023/03/19 00:01:13;;;;;;;12.77;9.32;;;9.60;99.90;;;;;;7404096;19;20268;-75
2023/03/19 00:03:42;;;;;;;12.77;8.68;;;9.60;99.90;;;;;;7403045;19;20248;-75
2023/03/19 00:06:11;;;;;;;12.50;8.77;;;9.60;99.90;;;;;;7404232;19;19919;-75
2023/03/19 00:08:40;;;;;;;11.95;8.98;;;9.80;99.90;;;;;;7401550;19;19918;-75
2023/03/19 00:11:11;;;;;;;12.48;9.27;;;9.70;99.90;;;;;;7401995;19;19918;-75
2023/03/19 00:13:40;;;;;;;14.93;8.68;;;9.70;99.90;;;;;;7403301;19;19922;-75
2023/03/19 00:16:12;;;;;;;13.70;8.60;;;9.80;99.90;;;;;;7401026;19;19914;-75
2023/03/19 00:18:41;;;;;;;13.10;8.57;;;9.60;99.90;;;;;;7403058;19;19934;-75
2023/03/19 00:21:10;;;;;;;10.60;8.30;;;9.60;99.90;;;;;;7403038;19;20229;-75
2023/03/19 00:23:39;;;;;;;11.55;7.75;;;9.70;99.90;;;;;;7403040;19;19914;-75
2023/03/19 00:26:08;;;;;;;12.23;8.85;;;9.60;99.90;;;;;;7403367;19;19910;-75
2023/03/19 00:28:38;;;;;;;13.30;7.93;;;9.60;99.90;;;;;;7402901;19;20264;-75
2023/03/19 00:31:15;;;;;;;11.98;8.25;;;9.60;99.90;;;;;;7401529;19;19954;-75
2023/03/19 00:33:47;;;;;;;11.25;8.07;;;9.60;99.90;;;;;;7400709;19;20372;-75
2023/03/19 00:36:17;;;;;;;12.20;7.85;;;9.50;99.90;;;;;;7403482;19;19918;-75
2023/03/19 00:38:47;;;;;;;10.52;7.65;;;9.50;99.90;;;;;;7402722;19;19916;-75
2023/03/19 00:41:17;;;;;;;11.05;8.07;;;9.60;99.90;;;;;;7403098;19;20348;-75
2023/03/19 00:43:47;;;;;;;13.02;7.55;;;9.50;99.90;;;;;;7402342;19;19921;-75
2023/03/19 00:46:18;;;;;;;14.95;8.18;;;9.50;99.90;;;;;;7402299;19;19926;-75
2023/03/19 00:48:47;;;;;;;10.55;7.03;;;9.40;99.90;;;;;;7402747;19;19986;-75
2023/03/19 00:51:16;;;;;;;11.27;8.05;;;9.40;99.90;;;;;;7401311;19;19958;-75
2023/03/19 00:53:46;;;;;;;10.30;7.57;;;9.50;99.90;;;;;;7402651;19;19943;-75
2023/03/19 00:56:17;;;;;;;12.85;7.72;;;9.50;99.90;;;;;;7402441;19;20394;-75
2023/03/19 00:58:46;;;;;;;11.25;7.75;;;9.40;99.90;;;;;;7400762;19;19924;-75
2023/03/19 01:01:19;;;;;;;11.52;7.72;;;9.50;99.90;;;;;;7402157;19;19918;-75
2023/03/19 01:03:48;;;;;;;10.60;7.82;;;9.40;99.90;;;;;;7401834;19;20234;-74
2023/03/19 01:06:17;;;;;;;11.73;8.05;;;9.30;99.90;;;;;;7402516;19;19926;-75
2023/03/19 01:08:46;;;;;;;13.43;8.35;;;9.30;99.90;;;;;;7401928;19;19935;-75
2023/03/19 01:11:17;;;;;;;11.57;8.35;;;9.30;99.90;;;;;;7400822;19;19925;-75
2023/03/19 01:13:46;;;;;;;13.00;8.27;;;9.30;99.90;;;;;;7401726;19;20397;-75
2023/03/19 01:16:15;;;;;;;12.10;8.20;;;9.30;99.90;;;;;;7400914;19;19922;-75
2023/03/19 01:18:47;;;;;;;14.88;7.90;;;9.30;99.90;;;;;;7401944;19;20141;-75
2023/03/19 01:21:16;;;;;;;9.20;7.35;;;9.40;99.90;;;;;;7401659;19;19921;-75
2023/03/19 01:23:45;;;;;;;10.95;8.20;;;9.40;99.90;;;;;;7401501;19;19941;-75
2023/03/19 01:26:14;;;;;;;12.73;8.82;;;9.30;99.90;;;;;;7401275;19;19911;-75
2023/03/19 01:28:43;;;;;;;10.98;7.88;;;11.10;99.90;;;;;;7401167;19;19934;-75
2023/03/19 01:31:12;;;;;;;11.27;8.50;;;9.50;99.90;;;;;;7400432;19;19914;-75
2023/03/19 01:33:41;;;;;;;11.85;7.97;;;9.40;99.90;;;;;;7401675;19;20326;-75
2023/03/19 01:36:13;;;;;;;12.60;8.20;;;9.40;99.90;;;;;;7402236;19;19926;-75
2023/03/19 01:38:42;;;;;;;;;;;9.40;99.90;;;;;;7403844;19;20352;-75
2023/03/19 01:41:11;;;;;;;10.75;7.38;;;9.30;99.90;;;;;;7398873;19;19936;-75
2023/03/19 01:43:40;;;;;;;11.63;8.00;;;9.30;99.90;;;;;;7401996;19;19922;-75
2023/03/19 01:46:14;;;;;;;12.38;8.73;;;9.30;99.90;;;;;;7400358;19;19921;-75
2023/03/19 01:48:46;;;;;;;12.35;8.82;;;9.40;99.90;;;;;;7400339;19;19911;-75
2023/03/19 01:51:20;;;;;;;12.85;9.07;;;9.50;99.90;;;;;;7400088;19;19921;-75
2023/03/19 01:53:53;;;;;;;13.48;9.27;;;9.50;99.90;;;;;;7400649;19;19915;-75
2023/03/19 01:56:24;;;;;;;12.38;8.25;;;9.40;99.90;;;;;;7400920;19;19922;-75
2023/03/19 01:58:58;;;;;;;11.32;8.18;;;9.30;99.90;;;;;;7398790;19;19922;-75
2023/03/19 02:01:29;;;;;;;13.98;8.63;;;9.30;99.90;;;;;;7400905;19;19919;-75
2023/03/19 02:03:58;;;;;;;11.63;8.07;;;9.40;99.90;;;;;;7399539;19;19953;-75
2023/03/19 02:06:31;;;;;;;14.65;8.88;;;9.20;99.90;;;;;;7400531;19;20546;-75
2023/03/19 02:09:01;;;;;;;13.98;8.98;;;9.20;99.90;;;;;;7400934;19;19914;-75
2023/03/19 02:11:30;;;;;;;13.82;8.90;;;9.20;99.90;;;;;;7400041;19;19925;-75
2023/03/19 02:13:59;;;;;;;12.07;7.97;;;9.40;99.90;;;;;;7400426;19;19915;-75
2023/03/19 02:16:28;;;;;;;15.20;8.85;;;9.40;99.90;;;;;;7399844;19;19947;-75
2023/03/19 02:18:58;;;;;;;14.20;9.20;;;9.30;99.90;;;;;;7399987;19;19943;-75
2023/03/19 02:21:30;;;;;;;14.07;8.82;;;9.20;99.90;;;;;;7399897;19;20267;-75
2023/03/19 02:24:08;;;;;;;13.85;9.70;;;9.20;99.90;;;;;;7400127;19;19922;-75
2023/03/19 02:26:41;;;;;;;13.10;9.20;;;9.20;99.90;;;;;;7400096;19;20317;-75
2023/03/19 02:29:10;;;;;;;13.38;8.98;;;9.30;99.90;;;;;;7399261;19;20309;-75
2023/03/19 02:31:39;;;;;;;19.15;10.05;;;9.30;99.90;;;;;;7396581;19;20379;-75
2023/03/19 02:34:29;;;;;;;14.93;10.30;;;9.20;99.90;;;;;;7399121;19;19922;-75
2023/03/19 02:37:02;;;;;;;12.25;8.65;;;9.40;99.90;;;;;;7402719;19;19939;-75
2023/03/19 02:39:35;;;;;;;15.93;10.02;;;9.40;99.90;;;;;;7399072;19;20266;-75
2023/03/19 02:42:08;;;;;;;14.35;8.52;;;9.30;99.90;;;;;;7398798;19;19923;-76
2023/03/19 02:44:37;;;;;;;16.63;9.95;;;9.50;99.90;;;;;;7398836;19;20336;-75
2023/03/19 02:47:06;;;;;;;13.93;9.68;;;9.20;99.90;;;;;;7398392;19;19922;-75
2023/03/19 02:49:35;;;;;;;14.35;10.10;;;9.40;99.90;;;;;;7398577;19;20368;-75
2023/03/19 02:52:04;;;;;;;13.75;8.23;;;9.30;99.90;;;;;;7399793;19;19915;-75
2023/03/19 02:54:33;;;;;;;15.23;8.88;;;9.10;99.90;;;;;;7405625;19;19925;-76
2023/03/19 02:57:02;;;;;;;14.23;9.13;;;9.30;99.90;;;;;;7405155;19;19926;-75
2023/03/19 02:59:34;;;;;;;17.08;9.55;;;9.40;99.90;;;;;;7405275;19;19955;-75
2023/03/19 03:02:03;;;;;;;13.27;9.18;;;9.30;99.90;;;;;;7405267;19;19966;-75
2023/03/19 03:04:33;;;;;;;13.68;9.43;;;9.30;99.90;;;;;;7404060;19;19919;-75
2023/03/19 03:07:02;;;;;;;15.35;9.30;;;9.20;99.90;;;;;;7405178;19;19918;-75
2023/03/19 03:09:31;;;;;;;12.55;9.07;;;9.30;99.90;;;;;;7404842;19;19918;-75
2023/03/19 03:11:59;;;;;;;15.60;9.10;;;9.00;99.90;;;;;;7403736;19;20306;-75
2023/03/19 03:14:28;;;;;;;14.32;9.23;;;9.10;99.90;;;;;;7404877;19;19918;-76
2023/03/19 03:17:00;;;;;;;13.52;8.60;;;9.30;99.90;;;;;;7404234;19;19922;-75
2023/03/19 03:19:29;;;;;;;14.00;9.32;;;9.20;99.90;;;;;;7405402;19;19918;-76
2023/03/19 03:21:59;;;;;;;18.60;9.45;;;9.40;99.90;;;;;;7404795;19;19943;-76
2023/03/19 03:24:28;;;;;;;13.80;9.35;;;9.10;99.90;;;;;;7404587;19;19915;-75
2023/03/19 03:26:57;;;;;;;15.85;9.50;;;9.20;99.90;;;;;;7404579;19;19915;-75
2023/03/19 03:29:26;;;;;;;14.43;9.88;;;9.20;99.90;;;;;;7404686;19;19919;-76
2023/03/19 03:31:55;;;;;;;15.73;9.88;;;9.20;99.90;;;;;;7403817;19;19918;-75
2023/03/19 03:34:26;;;;;;;13.65;9.27;;;9.10;99.90;;;;;;7404247;19;19910;-75
2023/03/19 03:36:55;;;;;;;20.63;10.27;;;9.10;99.90;;;;;;7408768;19;19911;-75
2023/03/19 03:39:25;;;;;;;16.08;10.57;;;9.10;99.90;;;;;;7404227;19;19982;-75
2023/03/19 03:41:54;;;;;;;16.35;10.50;;;9.10;99.90;;;;;;7404302;19;19910;-75
2023/03/19 03:44:24;;;;;;;18.13;11.02;;;9.10;99.90;;;;;;7405321;19;20261;-75
2023/03/19 03:46:53;;;;;;;18.52;10.63;;;9.10;99.90;;;;;;7403888;19;19918;-75
2023/03/19 03:49:22;;;;;;;14.85;9.57;;;9.10;99.90;;;;;;7403611;19;19926;-75
2023/03/19 03:51:53;;;;;;;16.08;9.60;;;9.10;99.90;;;;;;7402909;19;19915;-75
2023/03/19 03:54:22;;;;;;;17.02;10.30;;;9.10;99.90;;;;;;7403760;19;19930;-75
2023/03/19 03:56:51;;;;;;;16.45;9.45;;;9.00;99.90;;;;;;7403742;19;19923;-75
2023/03/19 03:59:20;;;;;;;16.30;10.80;;;9.00;99.90;;;;;;7401568;19;19930;-75
2023/03/19 04:01:49;;;;;;;17.05;10.13;;;9.10;99.90;;;;;;7403564;19;19925;-75
2023/03/19 04:04:18;;;;;;;15.27;9.95;;;9.10;99.90;;;;;;7401275;19;19919;-75
2023/03/19 04:06:48;;;;;;;14.95;9.23;;;9.10;99.90;;;;;;7403533;19;20277;-75
2023/03/19 04:09:19;;;;;;;15.63;9.77;;;9.20;99.90;;;;;;7403576;19;19929;-75
2023/03/19 04:11:48;;;;;;;17.08;10.10;;;9.10;99.90;;;;;;7403196;19;19946;-75
2023/03/19 04:14:17;;;;;;;14.13;10.02;;;9.20;99.90;;;;;;7403357;19;19915;-75
2023/03/19 04:16:47;;;;;;;16.02;10.48;;;9.10;99.90;;;;;;7403030;19;19915;-75
2023/03/19 04:19:16;;;;;;;15.55;8.65;;;9.20;99.90;;;;;;7402866;19;19921;-75
2023/03/19 04:21:45;;;;;;;15.05;10.05;;;9.00;99.90;;;;;;7403198;19;19918;-75
2023/03/19 04:24:15;;;;;;;13.95;9.18;;;9.20;99.90;;;;;;7403145;19;20280;-75
2023/03/19 04:26:48;;;;;;;15.50;10.13;;;9.20;99.90;;;;;;7403030;19;19915;-75
2023/03/19 04:29:17;;;;;;;16.13;9.35;;;9.00;99.90;;;;;;7402732;19;19919;-75
2023/03/19 04:31:46;;;;;;;14.52;9.77;;;9.10;99.90;;;;;;7402510;19;19943;-75
2023/03/19 04:34:16;;;;;;;16.98;10.32;;;9.00;99.90;;;;;;7403138;19;19926;-75
2023/03/19 04:36:46;;;;;;;13.80;9.48;;;9.00;99.90;;;;;;7402831;19;19918;-75
2023/03/19 04:39:14;;;;;;;14.10;9.43;;;9.00;99.90;;;;;;7402615;19;19919;-75
2023/03/19 04:41:46;;;;;;;17.50;9.55;;;9.00;99.90;;;;;;7402572;19;19915;-75
2023/03/19 04:44:15;;;;;;;14.30;9.40;;;9.00;99.90;;;;;;7402509;19;19919;-75
2023/03/19 04:46:46;;;;;;;17.70;9.70;;;8.90;99.90;;;;;;7401927;19;19934;-75
2023/03/19 04:49:15;;;;;;;14.02;8.48;;;8.90;99.90;;;;;;7402252;19;19921;-75
2023/03/19 04:51:44;;;;;;;13.48;8.05;;;9.00;99.90;;;;;;7402044;19;19911;-75
2023/03/19 04:54:13;;;;;;;16.17;8.45;;;8.90;99.90;;;;;;7401976;19;19923;-75
2023/03/19 04:56:42;;;;;;;13.30;7.45;;;8.90;99.90;;;;;;7402185;19;19932;-75
2023/03/19 04:59:13;;;;;;;10.63;7.47;;;8.90;99.90;;;;;;7400746;19;19954;-75
2023/03/19 05:01:42;;;;;;;13.27;7.90;;;9.00;99.90;;;;;;7402278;19;19925;-75
2023/03/19 05:04:11;;;;;;;11.57;7.53;;;9.00;99.90;;;;;;7401474;19;19914;-75
2023/03/19 05:06:40;;;;;;;10.95;7.18;;;8.80;99.90;;;;;;7401992;19;19923;-75
2023/03/19 05:09:09;;;;;;;12.50;7.60;;;9.00;99.90;;;;;;7401523;19;19947;-75
2023/03/19 05:11:38;;;;;;;12.45;8.00;;;8.90;99.90;;;;;;7401522;19;19918;-75
2023/03/19 05:14:07;;;;;;;13.60;8.40;;;9.00;99.90;;;;;;7402351;19;19925;-75
2023/03/19 05:16:39;;;;;;;15.68;7.97;;;8.90;99.90;;;;;;7398329;19;19942;-75
2023/03/19 05:19:07;;;;;;;12.68;7.45;;;8.90;99.90;;;;;;7401552;19;19919;-75
2023/03/19 05:21:36;;;;;;;9.73;6.57;;;8.90;99.90;;;;;;7401326;19;19919;-75
2023/03/19 05:24:05;;;;;;;10.52;6.82;;;8.90;99.90;;;;;;7401982;19;19918;-75
2023/03/19 05:26:34;;;;;;;9.52;6.65;;;8.70;99.90;;;;;;7401548;19;19930;-75
2023/03/19 05:29:03;;;;;;;12.23;7.07;;;8.80;99.90;;;;;;7401397;19;19918;-75
2023/03/19 05:31:32;;;;;;;11.30;6.65;;;8.70;99.90;;;;;;7401173;19;19947;-75
2023/03/19 05:34:04;;;;;;;8.45;5.95;;;8.70;99.90;;;;;;7400907;19;19918;-75
2023/03/19 05:36:33;;;;;;;8.90;5.78;;;8.70;99.90;;;;;;7401414;19;19918;-75
2023/03/19 05:39:02;;;;;;;10.07;6.35;;;8.60;99.90;;;;;;7401190;19;20416;-75
2023/03/19 05:41:31;;;;;;;9.65;6.13;;;8.70;99.90;;;;;;7398962;19;19977;-75
2023/03/19 05:44:00;;;;;;;9.73;5.78;;;8.70;99.90;;;;;;7401156;19;19970;-75
2023/03/19 05:46:29;;;;;;;10.73;6.15;;;8.70;99.90;;;;;;7400172;19;19929;-75
2023/03/19 05:48:59;;;;;;;9.38;6.70;;;8.50;99.90;;;;;;7400781;19;19914;-75
2023/03/19 05:51:31;;;;;;;9.60;5.78;;;8.50;99.90;;;;;;7400331;19;20245;-75
2023/03/19 05:54:00;;;;;;;11.82;5.93;;;8.40;99.90;;;;;;7398845;19;20259;-75
2023/03/19 05:56:28;;;;;;;9.75;5.85;;;8.50;99.90;;;;;;7400166;19;19918;-75
2023/03/19 05:58:58;;;;;;;8.30;5.30;;;8.60;99.90;;;;;;7398780;19;19929;-75
2023/03/19 06:01:26;;;;;;;9.55;5.82;;;8.50;99.90;;;;;;7400182;19;19922;-75
2023/03/19 06:03:55;;;;;;;11.25;6.40;;;8.70;99.90;;;;;;7399458;19;19992;-75
2023/03/19 06:06:25;;;;;;;10.43;5.97;;;8.60;99.90;;;;;;7399820;19;19990;-75
2023/03/19 06:08:57;;;;;;;10.95;6.72;;;8.60;99.90;;;;;;7399976;19;19918;-75
2023/03/19 06:11:26;;;;;;;10.15;6.38;;;8.50;99.90;;;;;;7399776;19;19921;-74
2023/03/19 06:13:55;;;;;;;9.35;5.68;;;8.60;99.90;;;;;;7398097;19;19918;-75
2023/03/19 06:16:24;;;;;;;10.70;6.13;;;8.70;99.90;;;;;;7400087;19;19944;-75
2023/03/19 06:18:53;;;;;;;8.85;5.45;;;8.50;99.90;;;;;;7399654;19;20339;-75
2023/03/19 06:21:24;;;;;;;8.25;5.07;;;8.50;99.90;;;;;;7400258;19;19982;-75
2023/03/19 06:23:53;;;;;;;7.93;5.03;;;8.50;99.90;;;;;;7399269;19;19919;-75
2023/03/19 06:26:25;;;;;;;12.32;4.93;;;8.40;99.90;;;;;;7400002;19;20524;-75
2023/03/19 06:28:54;;;;;;;6.93;4.63;;;8.50;99.90;;;;;;7406076;19;20241;-75
2023/03/19 06:31:23;;;;;;;11.13;4.90;;;8.50;99.90;;;;;;7406198;19;19918;-75
2023/03/19 06:33:52;;;;;;;6.47;4.55;;;8.50;99.90;;;;;;7406203;19;20305;-75
2023/03/19 06:36:21;;;;;;;6.93;4.93;;;8.40;99.90;;;;;;7405948;19;19921;-75
2023/03/19 06:38:50;;;;;;;7.40;4.50;;;8.40;99.90;;;;;;7406181;19;20268;-75
2023/03/19 06:41:20;;;;;;;7.28;4.72;;;8.40;99.90;;;;;;7405805;19;19918;-75
2023/03/19 06:43:52;;;;;;;7.30;4.10;;;8.40;99.90;;;;;;7405803;19;19922;-75
2023/03/19 06:46:21;;;;;;;;;;;8.30;99.90;;;;;;7407698;19;19941;-75
2023/03/19 06:48:50;;;;;;;8.18;4.68;;;8.40;99.90;;;;;;7404049;19;19911;-76
2023/03/19 06:51:20;;;;;;;7.35;4.60;;;8.40;99.90;;;;;;7405421;19;19921;-75
2023/03/19 06:53:49;;;;;;;6.10;4.53;;;8.30;99.90;;;;;;7403923;19;19925;-74
2023/03/19 06:56:18;;;;;;;10.52;5.50;;;8.50;99.90;;;;;;7405430;19;19925;-74
2023/03/19 06:58:47;;;;;;;8.05;4.85;;;8.20;99.90;;;;;;7403180;19;20371;-75
2023/03/19 07:01:18;;;;;;;8.50;4.90;;;8.30;99.90;;;;;;7405003;19;19910;-75
2023/03/19 07:03:47;;;;;;;7.45;4.63;;;8.30;99.90;;;;;;7404355;19;19915;-75
2023/03/19 07:06:16;;;;;;;7.80;4.90;;;8.30;99.90;;;;;;7405900;19;20433;-75
2023/03/19 07:08:45;;;;;;;8.07;4.43;;;8.30;99.90;;;;;;7405306;19;19915;-75
2023/03/19 07:11:15;;;;;;;7.88;4.90;;;8.30;99.90;;;;;;7404952;19;19922;-75
2023/03/19 07:13:45;;;;;;;9.75;4.72;;;8.30;99.90;;;;;;7403211;19;19911;-75
2023/03/19 07:16:14;;;;;;;8.77;5.10;;;8.40;99.90;;;;;;7404459;19;19922;-75
2023/03/19 07:18:45;;;;;;;6.38;4.53;;;8.10;99.90;;;;;;7405142;19;19919;-75
2023/03/19 07:21:14;;;;;;;7.90;4.78;;;8.20;99.90;;;;;;7404729;19;19934;-74
2023/03/19 07:23:45;;;;;;;9.43;5.00;;;8.30;99.90;;;;;;7405313;19;19929;-75
2023/03/19 07:26:14;;;;;;;7.68;4.95;;;8.40;99.90;;;;;;7404691;19;19926;-75
2023/03/19 07:28:43;;;;;;;9.00;5.20;;;8.50;99.90;;;;;;7404729;19;20289;-75
2023/03/19 07:31:12;;;;;;;8.30;4.93;;;8.40;99.90;;;;;;7404790;19;20348;-75
2023/03/19 07:33:41;;;;;;;7.97;4.53;;;8.60;99.90;;;;;;7407071;19;19919;-75
2023/03/19 07:36:13;;;;;;;6.25;4.53;;;8.60;99.90;;;;;;7405200;19;19914;-75
2023/03/19 07:38:42;;;;;;;8.15;5.30;;;8.70;99.90;;;;;;7403264;19;19907;-75
2023/03/19 07:41:10;;;;;;;8.95;4.60;;;8.70;99.90;;;;;;7405729;19;19921;-75
2023/03/19 07:43:39;;;;;;;8.63;5.05;;;8.70;99.90;;;;;;7404950;19;19915;-75
2023/03/19 07:46:08;;;;;;;7.22;4.40;;;8.80;99.90;;;;;;7404365;19;19941;-75
2023/03/19 07:48:37;;;;;;;7.38;4.30;;;8.80;99.90;;;;;;7404015;19;19911;-75
2023/03/19 07:51:07;;;;;;;8.23;4.47;;;8.70;99.90;;;;;;7404178;19;19922;-75
2023/03/19 07:53:39;;;;;;;8.52;4.80;;;8.80;99.90;;;;;;7402978;19;19928;-75
2023/03/19 07:56:10;;;;;;;7.05;4.85;;;8.90;99.90;;;;;;7403830;19;19954;-75
2023/03/19 07:58:39;;;;;;;6.57;4.28;;;8.90;99.90;;;;;;7402388;19;19925;-75
2023/03/19 08:01:08;;;;;;;6.22;4.57;;;9.00;99.90;;;;;;7403800;19;19924;-75
2023/03/19 08:03:37;;;;;;;8.00;4.63;;;9.00;99.90;;;;;;7403204;19;19946;-75
2023/03/19 08:06:06;;;;;;;6.20;4.38;;;9.20;99.90;;;;;;7401610;19;19914;-75
2023/03/19 08:08:36;;;;;;;7.82;5.10;;;9.10;99.90;;;;;;7403240;19;20264;-75
2023/03/19 08:11:08;;;;;;;6.38;4.85;;;9.20;99.90;;;;;;7403271;19;19918;-75
2023/03/19 08:13:37;;;;;;;8.30;4.25;;;9.20;99.90;;;;;;7402256;19;20361;-75
2023/03/19 08:16:07;;;;;;;8.18;4.40;;;9.20;99.90;;;;;;7402725;19;19926;-77
2023/03/19 08:18:36;;;;;;;6.80;4.68;;;9.10;99.90;;;;;;7403347;19;19914;-75
2023/03/19 08:21:05;;;;;;;5.70;3.90;;;9.20;99.90;;;;;;7403061;19;19922;-75
2023/03/19 08:23:34;;;;;;;5.93;4.10;;;9.30;99.90;;;;;;7402983;19;19925;-75
2023/03/19 08:26:03;;;;;;;7.75;4.30;;;9.50;99.90;;;;;;7402965;19;19946;-75
2023/03/19 08:28:36;;;;;;;8.07;4.45;;;9.40;99.90;;;;;;7402807;19;19911;-76
2023/03/19 08:31:09;;;;;;;5.63;4.32;;;9.50;99.90;;;;;;7402723;19;19914;-75
2023/03/19 08:33:38;;;;;;;8.45;4.57;;;9.30;99.90;;;;;;7406121;19;20338;-75
2023/03/19 08:36:09;;;;;;;6.05;4.18;;;9.40;99.90;;;;;;7403050;19;19928;-75
2023/03/19 08:38:39;;;;;;;7.40;4.50;;;9.50;99.90;;;;;;7403075;19;20143;-75
2023/03/19 08:41:08;;;;;;;7.65;4.90;;;9.40;99.90;;;;;;7402576;19;19918;-75
2023/03/19 08:43:39;;;;;;;8.60;5.00;;;9.60;99.90;;;;;;7402880;19;19922;-75
2023/03/19 08:46:09;;;;;;;6.93;4.25;;;9.60;99.90;;;;;;7402800;19;19982;-75
2023/03/19 08:48:38;;;;;;;10.07;5.88;;;9.70;99.90;;;;;;7400727;19;19915;-75
2023/03/19 08:51:08;;;;;;;11.10;5.07;;;9.70;99.90;;;;;;7402254;19;19926;-75
2023/03/19 08:53:38;;;;;;;9.02;5.50;;;9.70;99.90;;;;;;7401472;19;19929;-75
2023/03/19 08:56:09;;;;;;;9.23;5.32;;;9.80;99.90;;;;;;7402816;19;19919;-75
2023/03/19 08:58:41;;;;;;;8.75;5.70;;;10.00;99.90;;;;;;7401156;19;20277;-75
2023/03/19 09:01:12;;;;;;;11.07;5.68;;;10.10;99.90;;;;;;7402282;19;19939;-75
2023/03/19 09:03:44;;;;;;;8.55;5.35;;;10.10;99.90;;;;;;7401332;19;19918;-75
2023/03/19 09:06:14;;;;;;;7.50;4.80;;;10.20;99.90;;;;;;7401957;19;19918;-75
2023/03/19 09:08:44;;;;;;;8.30;4.78;;;10.40;99.90;;;;;;7401964;19;20012;-76
2023/03/19 09:11:13;;;;;;;7.53;4.85;;;10.50;99.90;;;;;;7402147;19;20388;-75
2023/03/19 09:13:44;;;;;;;6.72;4.63;;;10.40;99.90;;;;;;7401423;19;19918;-76
2023/03/19 09:16:13;;;;;;;8.93;4.70;;;10.40;99.90;;;;;;7401068;19;19914;-75
2023/03/19 09:18:42;;;;;;;8.93;4.50;;;10.30;99.90;;;;;;7401453;19;19915;-75
2023/03/19 09:21:11;;;;;;;6.45;4.30;;;10.40;99.90;;;;;;7401415;19;19918;-75
2023/03/19 09:23:40;;;;;;;8.00;4.68;;;10.40;99.90;;;;;;7401795;19;19910;-75
2023/03/19 09:26:09;;;;;;;7.93;4.85;;;10.30;99.90;;;;;;7401380;19;20344;-75
2023/03/19 09:28:38;;;;;;;7.03;4.25;;;10.30;99.90;;;;;;7401150;19;19922;-76
2023/03/19 09:31:11;;;;;;;7.72;4.07;;;10.40;99.90;;;;;;7401546;19;19922;-75
2023/03/19 09:33:40;;;;;;;8.93;4.70;;;10.50;99.90;;;;;;7400779;19;19950;-75
2023/03/19 09:36:10;;;;;;;7.63;4.00;;;10.60;99.90;;;;;;7401045;19;20013;-76
2023/03/19 09:38:39;;;;;;;6.93;4.60;;;10.60;99.90;;;;;;7401383;19;19930;-76
2023/03/19 09:41:12;;;;;;;8.52;4.80;;;10.80;99.90;;;;;;7400990;19;19924;-76
2023/03/19 09:43:56;;;;;;;6.45;4.20;;;10.80;99.90;;;;;;7400883;19;19931;-76
2023/03/19 09:46:34;;;;;;;8.02;4.45;;;10.70;99.90;;;;;;7400004;19;19921;-75
2023/03/19 09:49:12;;;;;;;5.82;3.70;;;10.60;99.90;;;;;;7404477;19;19919;-76
2023/03/19 09:51:48;;;;;;;6.18;3.83;;;10.80;99.90;;;;;;7400463;19;19922;-76
2023/03/19 09:54:28;;;;;;;6.55;3.42;;;10.70;99.90;;;;;;7399260;19;19926;-76
2023/03/19 09:56:57;;;;;;;6.03;3.90;;;10.70;99.90;;;;;;7400347;19;20269;-76
2023/03/19 09:59:28;;;;;;;6.75;4.15;;;10.70;99.90;;;;;;7400242;19;19919;-76
2023/03/19 10:02:11;;;;;;;7.47;4.50;;;10.60;99.90;;;;;;7401926;19;19911;-76
2023/03/19 10:04:50;;;;;;;6.03;4.20;;;10.80;99.90;;;;;;7404732;19;19938;-76
2023/03/19 10:07:31;;;;;;;7.85;4.68;;;11.00;99.90;;;;;;7406762;19;19921;-76
2023/03/19 10:10:22;;;;;;;6.05;4.07;;;11.10;99.90;;;;;;7406957;19;19970;-76
2023/03/19 10:12:58;;;;;;;6.82;4.07;;;11.20;99.90;;;;;;7406469;19;19922;-76
2023/03/19 10:15:31;;;;;;;7.07;3.75;;;11.30;99.90;;;;;;7403739;19;19915;-76
2023/03/19 10:18:06;;;;;;;7.10;4.28;;;11.20;99.90;;;;;;7406567;19;19929;-76
2023/03/19 10:20:45;;;;;;;7.18;4.25;;;11.20;99.90;;;;;;7406581;19;19918;-76
2023/03/19 10:23:43;;;;;;;5.40;3.67;;;11.10;99.90;;;;;;7406251;19;19933;-76
2023/03/19 10:26:17;;;;;;;6.85;4.00;;;11.20;99.90;;;;;;7405694;19;19914;-76
2023/03/19 10:28:50;;;;;;;6.97;4.30;;;11.20;99.90;;;;;;7406453;19;19915;-76
2023/03/19 10:31:29;;;;;;;8.18;5.22;;;11.30;99.90;;;;;;7407820;19;20353;-76
2023/03/19 10:34:24;;;;;;;7.25;4.97;;;11.40;99.90;;;;;;7404983;19;19915;-76
2023/03/19 10:37:03;;;;;;;7.43;4.43;;;11.20;99.90;;;;;;7405938;19;19915;-76
2023/03/19 10:39:35;;;;;;;6.97;4.18;;;11.30;99.90;;;;;;7405683;19;19919;-76
2023/03/19 10:42:20;;;;;;;6.43;4.50;;;11.30;99.90;;;;;;7406074;19;19958;-75
2023/03/19 10:44:52;;;;;;;8.05;4.75;;;9.20;99.90;;;;;;7405561;19;19915;-76
2023/03/19 10:47:26;;;;;;;7.68;4.68;;;11.40;99.90;;;;;;7404865;19;19917;-76
2023/03/19 10:49:58;;;;;;;5.60;4.47;;;11.40;99.90;;;;;;7405696;19;19922;-76
2023/03/19 10:52:30;;;;;;;;;;;11.40;99.90;;;;;;7407764;19;19914;-76
2023/03/19 10:55:14;;;;;;;7.10;4.60;;;11.60;99.90;;;;;;7403821;19;19917;-76
2023/03/19 10:57:43;;;;;;;;;;;11.50;99.90;;;;;;7407120;19;19952;-76
2023/03/19 11:00:19;;;;;;;6.15;4.47;;;11.60;99.90;;;;;;7405300;19;19919;-76
2023/03/19 11:02:51;;;;;;;5.72;4.32;;;11.70;99.90;;;;;;7404907;19;19947;-76
2023/03/19 11:05:30;;;;;;;7.10;4.40;;;11.70;99.90;;;;;;7402398;19;19934;-77
2023/03/19 11:08:01;;;;;;;7.40;4.45;;;11.70;99.90;;;;;;7404730;19;20335;-76
2023/03/19 11:10:33;;;;;;;5.90;3.80;;;11.80;99.90;;;;;;7404807;19;19966;-75
2023/03/19 11:13:06;;;;;;;7.68;4.38;;;11.80;99.90;;;;;;7403244;19;19922;-75
2023/03/19 11:15:38;;;;;;;7.03;4.25;;;11.80;99.90;;;;;;7400713;19;19914;-75
2023/03/19 11:18:17;;;;;;;6.47;3.65;;;12.00;99.90;;;;;;7404561;19;20222;-75
2023/03/19 11:20:55;;;;;;;5.45;3.80;;;11.90;99.90;;;;;;7404495;19;19975;-75
2023/03/19 11:23:28;;;;;;;6.43;4.28;;;12.00;99.90;;;;;;7404136;19;20345;-75
2023/03/19 11:26:00;;;;;;;8.20;4.75;;;11.90;99.90;;;;;;7404130;19;20339;-75
2023/03/19 11:28:32;;;;;;;5.70;4.35;;;11.90;99.90;;;;;;7403925;19;20348;-75
2023/03/19 11:31:07;;;;;;;6.22;3.88;;;12.00;99.90;;;;;;7406741;19;19926;-75
2023/03/19 11:33:49;;;;;;;5.53;3.50;;;11.90;99.90;;;;;;7403839;19;19930;-75
2023/03/19 11:36:27;;;;;;;5.63;4.00;;;11.90;99.90;;;;;;7404012;19;19982;-75
2023/03/19 11:39:08;;;;;;;5.20;3.95;;;11.90;99.90;;;;;;7404641;19;19911;-75
2023/03/19 11:41:52;;;;;;;5.20;3.85;;;12.10;99.90;;;;;;7403917;19;19933;-76
2023/03/19 11:44:27;;;;;;;4.95;3.70;;;12.20;99.90;;;;;;7404132;19;19915;-76
2023/03/19 11:47:06;;;;;;;6.28;4.18;;;12.50;99.90;;;;;;7403805;19;19930;-76
2023/03/19 11:49:52;;;;;;;5.43;3.88;;;12.30;99.90;;;;;;7404057;19;19942;-75
2023/03/19 11:52:30;;;;;;;5.10;3.25;;;12.20;99.90;;;;;;7404072;19;20352;-76
2023/03/19 11:55:18;;;;;;;5.38;3.55;;;12.50;99.90;;;;;;7402618;19;19922;-76
2023/03/19 11:58:27;;;;;;;4.60;3.83;;;12.70;99.90;;;;;;7402938;19;19919;-77
2023/03/19 12:00:58;;;;;;;4.88;3.20;;;13.00;99.90;;;;;;7403139;19;20416;-76
2023/03/19 12:03:47;;;;;;;7.35;3.28;;;13.30;99.90;;;;;;7403356;19;19921;-76
2023/03/19 12:06:26;;;;;;;6.65;2.85;;;13.20;99.90;;;;;;7403692;19;19927;-75
2023/03/19 12:09:04;;;;;;;7.05;3.53;;;13.30;99.90;;;;;;7402931;19;19915;-76
2023/03/19 12:11:43;;;;;;;5.45;3.30;;;13.10;99.90;;;;;;7402909;19;19918;-76
2023/03/19 12:14:26;;;;;;;4.38;2.95;;;13.20;99.90;;;;;;7403102;19;20390;-76
2023/03/19 12:17:03;;;;;;;;;;;13.10;99.90;;;;;;7404670;19;20361;-76
2023/03/19 12:19:56;;;;;;;4.10;3.15;;;13.00;99.90;;;;;;7402755;19;20380;-76
2023/03/19 12:22:39;;;;;;;5.65;3.50;;;13.00;99.90;;;;;;7402737;19;19926;-76
2023/03/19 12:25:28;;;;;;;5.00;3.55;;;13.30;99.90;;;;;;7401635;19;19931;-76
2023/03/19 12:28:00;;;;;;;4.97;3.40;;;13.40;99.90;;;;;;7402438;19;19921;-76
2023/03/19 12:30:38;;;;;;;5.82;3.40;;;13.20;99.90;;;;;;7405259;19;19915;-77
2023/03/19 12:33:16;;;;;;;5.88;3.70;;;13.30;99.90;;;;;;7402285;19;19970;-76
2023/03/19 12:35:49;;;;;;;5.65;4.00;;;13.20;99.90;;;;;;7401079;19;19956;-77
2023/03/19 12:38:25;;;;;;;5.78;3.67;;;13.40;99.90;;;;;;7402152;19;20361;-76
2023/03/19 12:41:02;;;;;;;4.88;3.42;;;13.40;99.90;;;;;;7402632;19;20236;-76
2023/03/19 12:43:38;;;;;;;6.55;3.75;;;13.40;99.90;;;;;;7401835;19;19915;-76
2023/03/19 12:46:12;;;;;;;5.32;3.65;;;13.30;99.90;;;;;;7401894;19;19925;-76
2023/03/19 12:48:45;;;;;;;6.70;4.00;;;13.30;99.90;;;;;;7401976;19;19918;-76
2023/03/19 12:51:19;;;;;;;6.68;3.92;;;13.60;99.90;;;;;;7402663;19;20244;-76
2023/03/19 12:53:52;;;;;;;6.90;3.90;;;13.60;99.90;;;;;;7402267;19;19923;-76
2023/03/19 12:56:33;;;;;;;5.00;3.67;;;13.70;99.90;;;;;;7400065;19;19932;-76
2023/03/19 12:59:10;;;;;;;7.78;4.13;;;13.80;99.90;;;;;;7400583;19;19990;-76
2023/03/19 13:01:43;;;;;;;6.50;4.13;;;14.10;99.90;;;;;;7402082;19;19914;-76
2023/03/19 13:04:16;;;;;;;5.03;3.85;;;14.30;99.90;;;;;;7401106;19;20440;-77
2023/03/19 13:06:51;;;;;;;4.70;3.53;;;14.20;99.90;;;;;;7403576;19;20218;-76
2023/03/19 13:09:30;;;;;;;5.88;4.45;;;14.00;99.90;;;;;;7402927;19;19922;-76
2023/03/19 13:12:09;;;;;;;5.63;3.83;;;14.00;99.90;;;;;;7403571;19;19914;-76
2023/03/19 13:14:47;;;;;;;5.15;3.75;;;14.10;99.90;;;;;;7402273;19;19922;-77